sensor_id;sensor_type;location;lat;lon;timestamp;temperature;humidity
71254;HTU21D;59019;47.638;18.966;2023-07-09T00:02:45;16.39;92.18
71254;HTU21D;59019;47.638;18.966;2023-07-09T00:05:30;16.36;92.18
71254;HTU21D;59019;47.638;18.966;2023-07-09T00:08:26;16.35;92.28
71254;HTU21D;59019;47.638;18.966;2023-07-09T00:11:14;16.37;92.45
71254;HTU21D;59019;47.638;18.966;2023-07-09T00:14:00;16.33;92.70
71254;HTU21D;59019;47.638;18.966;2023-07-09T00:16:46;16.32;92.98
71254;HTU21D;59019;47.638;18.966;2023-07-09T00:19:34;16.32;93.28
71254;HTU21D;59019;47.638;18.966;2023-07-09T00:22:20;16.28;93.14
71254;HTU21D;59019;47.638;18.966;2023-07-09T00:25:10;16.27;93.08
71254;HTU21D;59019;47.638;18.966;2023-07-09T00:27:59;16.27;93.46
71254;HTU21D;59019;47.638;18.966;2023-07-09T00:30:46;16.24;93.21
71254;HTU21D;59019;47.638;18.966;2023-07-09T00:33:32;16.22;93.11
71254;HTU21D;59019;47.638;18.966;2023-07-09T00:36:27;16.12;93.30
71254;HTU21D;59019;47.638;18.966;2023-07-09T00:39:19;16.06;92.38
71254;HTU21D;59019;47.638;18.966;2023-07-09T00:42:05;16.02;93.12
71254;HTU21D;59019;47.638;18.966;2023-07-09T00:44:54;16.06;93.34
71254;HTU21D;59019;47.638;18.966;2023-07-09T00:47:46;16.08;92.85
71254;HTU21D;59019;47.638;18.966;2023-07-09T00:50:50;16.01;93.79
71254;HTU21D;59019;47.638;18.966;2023-07-09T00:53:39;16.00;93.99
71254;HTU21D;59019;47.638;18.966;2023-07-09T00:56:35;16.01;94.05
71254;HTU21D;59019;47.638;18.966;2023-07-09T00:59:26;16.00;93.98
71254;HTU21D;59019;47.638;18.966;2023-07-09T01:02:14;15.96;94.20
71254;HTU21D;59019;47.638;18.966;2023-07-09T01:05:01;15.95;94.01
71254;HTU21D;59019;47.638;18.966;2023-07-09T01:07:49;15.93;94.01
71254;HTU21D;59019;47.638;18.966;2023-07-09T01:10:35;15.90;93.95
71254;HTU21D;59019;47.638;18.966;2023-07-09T01:13:21;15.84;94.11
71254;HTU21D;59019;47.638;18.966;2023-07-09T01:16:07;15.78;94.30
71254;HTU21D;59019;47.638;18.966;2023-07-09T01:18:53;15.78;94.46
71254;HTU21D;59019;47.638;18.966;2023-07-09T01:21:39;15.77;94.29
71254;HTU21D;59019;47.638;18.966;2023-07-09T01:24:48;15.78;94.05
71254;HTU21D;59019;47.638;18.966;2023-07-09T01:27:37;15.73;94.38
71254;HTU21D;59019;47.638;18.966;2023-07-09T01:30:41;15.73;93.86
71254;HTU21D;59019;47.638;18.966;2023-07-09T01:33:27;15.71;94.29
71254;HTU21D;59019;47.638;18.966;2023-07-09T01:36:20;15.60;94.99
71254;HTU21D;59019;47.638;18.966;2023-07-09T01:39:09;15.55;95.12
71254;HTU21D;59019;47.638;18.966;2023-07-09T01:41:55;15.48;95.38
71254;HTU21D;59019;47.638;18.966;2023-07-09T01:44:42;15.47;95.54
71254;HTU21D;59019;47.638;18.966;2023-07-09T01:47:28;15.38;95.23
71254;HTU21D;59019;47.638;18.966;2023-07-09T01:50:14;15.29;95.93
71254;HTU21D;59019;47.638;18.966;2023-07-09T01:53:03;15.30;95.91
71254;HTU21D;59019;47.638;18.966;2023-07-09T01:55:50;15.22;95.04
71254;HTU21D;59019;47.638;18.966;2023-07-09T01:58:37;15.13;95.06
71254;HTU21D;59019;47.638;18.966;2023-07-09T02:01:30;15.23;95.65
71254;HTU21D;59019;47.638;18.966;2023-07-09T02:04:19;15.11;95.39
71254;HTU21D;59019;47.638;18.966;2023-07-09T02:07:05;15.24;96.01
71254;HTU21D;59019;47.638;18.966;2023-07-09T02:09:51;15.34;95.33
71254;HTU21D;59019;47.638;18.966;2023-07-09T02:12:37;15.39;95.48
71254;HTU21D;59019;47.638;18.966;2023-07-09T02:15:23;15.36;95.92
71254;HTU21D;59019;47.638;18.966;2023-07-09T02:18:10;15.34;95.51
71254;HTU21D;59019;47.638;18.966;2023-07-09T02:20:56;15.32;95.83
71254;HTU21D;59019;47.638;18.966;2023-07-09T02:23:42;15.34;96.05
71254;HTU21D;59019;47.638;18.966;2023-07-09T02:26:27;15.43;95.72
71254;HTU21D;59019;47.638;18.966;2023-07-09T02:29:13;15.40;95.38
71254;HTU21D;59019;47.638;18.966;2023-07-09T02:32:00;15.39;95.14
71254;HTU21D;59019;47.638;18.966;2023-07-09T02:34:46;15.26;95.71
71254;HTU21D;59019;47.638;18.966;2023-07-09T02:37:38;15.37;95.72
71254;HTU21D;59019;47.638;18.966;2023-07-09T02:40:24;15.41;94.54
71254;HTU21D;59019;47.638;18.966;2023-07-09T02:43:10;15.17;95.91
71254;HTU21D;59019;47.638;18.966;2023-07-09T02:45:56;15.21;96.22
71254;HTU21D;59019;47.638;18.966;2023-07-09T02:48:41;15.15;96.39
71254;HTU21D;59019;47.638;18.966;2023-07-09T02:51:27;15.10;96.52
71254;HTU21D;59019;47.638;18.966;2023-07-09T02:54:13;15.02;96.62
71254;HTU21D;59019;47.638;18.966;2023-07-09T02:56:59;15.01;96.88
71254;HTU21D;59019;47.638;18.966;2023-07-09T02:59:45;15.10;96.46
71254;HTU21D;59019;47.638;18.966;2023-07-09T03:02:30;15.10;96.56
71254;HTU21D;59019;47.638;18.966;2023-07-09T03:05:16;15.12;96.42
71254;HTU21D;59019;47.638;18.966;2023-07-09T03:08:02;15.11;96.55
71254;HTU21D;59019;47.638;18.966;2023-07-09T03:10:48;15.15;96.84
71254;HTU21D;59019;47.638;18.966;2023-07-09T03:13:34;15.28;96.52
71254;HTU21D;59019;47.638;18.966;2023-07-09T03:16:20;15.36;95.78
71254;HTU21D;59019;47.638;18.966;2023-07-09T03:19:06;15.38;96.33
71254;HTU21D;59019;47.638;18.966;2023-07-09T03:21:51;15.42;96.79
71254;HTU21D;59019;47.638;18.966;2023-07-09T03:24:37;15.47;96.26
71254;HTU21D;59019;47.638;18.966;2023-07-09T03:27:23;15.51;96.46
71254;HTU21D;59019;47.638;18.966;2023-07-09T03:30:09;15.54;96.33
71254;HTU21D;59019;47.638;18.966;2023-07-09T03:32:55;15.56;96.23
71254;HTU21D;59019;47.638;18.966;2023-07-09T03:35:41;15.60;95.98
71254;HTU21D;59019;47.638;18.966;2023-07-09T03:38:27;15.65;96.46
71254;HTU21D;59019;47.638;18.966;2023-07-09T03:41:13;15.61;96.35
71254;HTU21D;59019;47.638;18.966;2023-07-09T03:43:59;15.62;96.80
71254;HTU21D;59019;47.638;18.966;2023-07-09T03:46:45;15.68;96.59
71254;HTU21D;59019;47.638;18.966;2023-07-09T03:49:30;15.80;96.67
71254;HTU21D;59019;47.638;18.966;2023-07-09T03:52:16;15.80;96.57
71254;HTU21D;59019;47.638;18.966;2023-07-09T03:55:03;15.88;96.42
71254;HTU21D;59019;47.638;18.966;2023-07-09T03:57:49;15.93;95.98
71254;HTU21D;59019;47.638;18.966;2023-07-09T04:00:35;15.97;95.90
71254;HTU21D;59019;47.638;18.966;2023-07-09T04:03:21;15.92;96.31
71254;HTU21D;59019;47.638;18.966;2023-07-09T04:06:08;15.90;97.00
71254;HTU21D;59019;47.638;18.966;2023-07-09T04:08:54;16.00;97.12
71254;HTU21D;59019;47.638;18.966;2023-07-09T04:11:39;16.18;96.40
71254;HTU21D;59019;47.638;18.966;2023-07-09T04:14:25;16.56;95.49
71254;HTU21D;59019;47.638;18.966;2023-07-09T04:17:11;16.89;94.51
71254;HTU21D;59019;47.638;18.966;2023-07-09T04:19:57;17.26;93.16
71254;HTU21D;59019;47.638;18.966;2023-07-09T04:22:43;17.64;91.06
71254;HTU21D;59019;47.638;18.966;2023-07-09T04:25:29;17.96;91.53
71254;HTU21D;59019;47.638;18.966;2023-07-09T04:28:15;18.24;90.67
71254;HTU21D;59019;47.638;18.966;2023-07-09T04:31:01;18.54;90.90
71254;HTU21D;59019;47.638;18.966;2023-07-09T04:33:49;18.87;90.10
71254;HTU21D;59019;47.638;18.966;2023-07-09T04:36:34;19.16;89.27
71254;HTU21D;59019;47.638;18.966;2023-07-09T04:39:20;19.45;87.99
71254;HTU21D;59019;47.638;18.966;2023-07-09T04:42:11;19.72;86.72
71254;HTU21D;59019;47.638;18.966;2023-07-09T04:44:57;20.05;84.81
71254;HTU21D;59019;47.638;18.966;2023-07-09T04:47:43;20.33;83.46
71254;HTU21D;59019;47.638;18.966;2023-07-09T04:50:29;20.47;83.02
71254;HTU21D;59019;47.638;18.966;2023-07-09T04:53:14;20.71;82.93
71254;HTU21D;59019;47.638;18.966;2023-07-09T04:56:00;20.93;82.65
71254;HTU21D;59019;47.638;18.966;2023-07-09T04:58:49;21.27;82.75
71254;HTU21D;59019;47.638;18.966;2023-07-09T05:01:35;21.50;83.23
71254;HTU21D;59019;47.638;18.966;2023-07-09T05:04:20;21.88;83.01
71254;HTU21D;59019;47.638;18.966;2023-07-09T05:07:06;22.29;82.38
71254;HTU21D;59019;47.638;18.966;2023-07-09T05:09:52;22.66;82.32
71254;HTU21D;59019;47.638;18.966;2023-07-09T05:12:50;23.09;80.33
71254;HTU21D;59019;47.638;18.966;2023-07-09T05:15:40;23.38;79.43
71254;HTU21D;59019;47.638;18.966;2023-07-09T05:18:26;23.67;78.83
71254;HTU21D;59019;47.638;18.966;2023-07-09T05:21:12;24.11;78.25
71254;HTU21D;59019;47.638;18.966;2023-07-09T05:23:58;24.48;76.97
71254;HTU21D;59019;47.638;18.966;2023-07-09T05:26:44;24.73;75.80
71254;HTU21D;59019;47.638;18.966;2023-07-09T05:29:30;24.90;74.10
71254;HTU21D;59019;47.638;18.966;2023-07-09T05:32:16;25.20;72.99
71254;HTU21D;59019;47.638;18.966;2023-07-09T05:35:03;25.44;67.16
71254;HTU21D;59019;47.638;18.966;2023-07-09T05:37:48;25.75;69.35
71254;HTU21D;59019;47.638;18.966;2023-07-09T05:40:34;26.06;65.95
71254;HTU21D;59019;47.638;18.966;2023-07-09T05:43:20;26.25;66.71
71254;HTU21D;59019;47.638;18.966;2023-07-09T05:46:06;26.66;64.32
71254;HTU21D;59019;47.638;18.966;2023-07-09T05:48:52;26.97;62.73
71254;HTU21D;59019;47.638;18.966;2023-07-09T05:51:38;27.12;62.53
71254;HTU21D;59019;47.638;18.966;2023-07-09T05:54:24;27.27;60.17
71254;HTU21D;59019;47.638;18.966;2023-07-09T05:57:10;27.56;59.51
71254;HTU21D;59019;47.638;18.966;2023-07-09T05:59:56;27.90;58.09
71254;HTU21D;59019;47.638;18.966;2023-07-09T06:02:42;27.83;57.06
71254;HTU21D;59019;47.638;18.966;2023-07-09T06:05:28;27.78;57.74
71254;HTU21D;59019;47.638;18.966;2023-07-09T06:08:16;27.98;56.96
71254;HTU21D;59019;47.638;18.966;2023-07-09T06:11:03;28.27;56.66
71254;HTU21D;59019;47.638;18.966;2023-07-09T06:13:49;28.27;56.12
71254;HTU21D;59019;47.638;18.966;2023-07-09T06:16:35;28.12;56.89
71254;HTU21D;59019;47.638;18.966;2023-07-09T06:19:20;27.87;57.55
71254;HTU21D;59019;47.638;18.966;2023-07-09T06:22:06;28.20;57.19
71254;HTU21D;59019;47.638;18.966;2023-07-09T06:24:54;28.44;57.25
71254;HTU21D;59019;47.638;18.966;2023-07-09T06:27:40;28.31;58.26
71254;HTU21D;59019;47.638;18.966;2023-07-09T06:30:25;28.90;57.60
71254;HTU21D;59019;47.638;18.966;2023-07-09T06:33:13;29.35;56.50
71254;HTU21D;59019;47.638;18.966;2023-07-09T06:36:00;29.66;54.62
71254;HTU21D;59019;47.638;18.966;2023-07-09T06:38:46;29.52;54.65
71254;HTU21D;59019;47.638;18.966;2023-07-09T06:41:32;29.87;54.30
71254;HTU21D;59019;47.638;18.966;2023-07-09T06:44:24;30.10;54.17
71254;HTU21D;59019;47.638;18.966;2023-07-09T06:47:11;30.54;53.28
71254;HTU21D;59019;47.638;18.966;2023-07-09T06:49:57;30.67;53.33
71254;HTU21D;59019;47.638;18.966;2023-07-09T06:52:43;31.14;52.07
71254;HTU21D;59019;47.638;18.966;2023-07-09T06:55:29;31.06;50.12
71254;HTU21D;59019;47.638;18.966;2023-07-09T06:58:16;31.14;50.66
71254;HTU21D;59019;47.638;18.966;2023-07-09T07:01:04;31.40;49.36
71254;HTU21D;59019;47.638;18.966;2023-07-09T07:03:50;31.43;48.20
71254;HTU21D;59019;47.638;18.966;2023-07-09T07:06:35;31.46;48.86
71254;HTU21D;59019;47.638;18.966;2023-07-09T07:09:21;31.69;48.33
71254;HTU21D;59019;47.638;18.966;2023-07-09T07:12:07;32.10;48.84
71254;HTU21D;59019;47.638;18.966;2023-07-09T07:14:54;32.30;48.54
71254;HTU21D;59019;47.638;18.966;2023-07-09T07:17:40;32.48;47.31
71254;HTU21D;59019;47.638;18.966;2023-07-09T07:20:26;32.50;46.67
71254;HTU21D;59019;47.638;18.966;2023-07-09T07:23:12;32.44;46.71
71254;HTU21D;59019;47.638;18.966;2023-07-09T07:25:58;32.57;46.03
71254;HTU21D;59019;47.638;18.966;2023-07-09T07:28:44;32.79;45.62
71254;HTU21D;59019;47.638;18.966;2023-07-09T07:31:30;33.03;46.62
71254;HTU21D;59019;47.638;18.966;2023-07-09T07:34:16;33.38;46.86
71254;HTU21D;59019;47.638;18.966;2023-07-09T07:37:02;33.47;44.45
71254;HTU21D;59019;47.638;18.966;2023-07-09T07:39:48;33.68;44.45
71254;HTU21D;59019;47.638;18.966;2023-07-09T07:42:34;33.29;43.93
71254;HTU21D;59019;47.638;18.966;2023-07-09T07:45:21;33.07;44.57
71254;HTU21D;59019;47.638;18.966;2023-07-09T07:48:06;33.07;43.93
71254;HTU21D;59019;47.638;18.966;2023-07-09T07:50:58;32.84;45.01
71254;HTU21D;59019;47.638;18.966;2023-07-09T07:53:45;32.83;45.63
71254;HTU21D;59019;47.638;18.966;2023-07-09T07:56:30;33.23;45.53
71254;HTU21D;59019;47.638;18.966;2023-07-09T07:59:17;33.30;46.64
71254;HTU21D;59019;47.638;18.966;2023-07-09T08:02:04;33.45;43.32
71254;HTU21D;59019;47.638;18.966;2023-07-09T08:04:50;33.55;42.75
71254;HTU21D;59019;47.638;18.966;2023-07-09T08:07:36;33.57;43.72
71254;HTU21D;59019;47.638;18.966;2023-07-09T08:10:22;34.18;42.62
71254;HTU21D;59019;47.638;18.966;2023-07-09T08:13:08;34.51;41.51
71254;HTU21D;59019;47.638;18.966;2023-07-09T08:15:54;34.06;42.40
71254;HTU21D;59019;47.638;18.966;2023-07-09T08:18:40;34.20;41.78
71254;HTU21D;59019;47.638;18.966;2023-07-09T08:21:25;34.49;40.20
71254;HTU21D;59019;47.638;18.966;2023-07-09T08:24:12;34.42;39.26
71254;HTU21D;59019;47.638;18.966;2023-07-09T08:26:59;34.78;40.76
71254;HTU21D;59019;47.638;18.966;2023-07-09T08:29:46;35.23;39.67
71254;HTU21D;59019;47.638;18.966;2023-07-09T08:32:32;34.71;39.42
71254;HTU21D;59019;47.638;18.966;2023-07-09T08:35:18;34.74;38.68
71254;HTU21D;59019;47.638;18.966;2023-07-09T08:38:04;34.71;39.20
71254;HTU21D;59019;47.638;18.966;2023-07-09T08:40:57;34.71;39.31
71254;HTU21D;59019;47.638;18.966;2023-07-09T08:52:35;34.80;39.05
71254;HTU21D;59019;47.638;18.966;2023-07-09T08:55:24;34.93;38.73
71254;HTU21D;59019;47.638;18.966;2023-07-09T08:58:15;34.69;38.96
71254;HTU21D;59019;47.638;18.966;2023-07-09T09:01:20;34.95;37.47
71254;HTU21D;59019;47.638;18.966;2023-07-09T09:04:28;34.93;38.72
71254;HTU21D;59019;47.638;18.966;2023-07-09T09:07:24;34.94;38.62
71254;HTU21D;59019;47.638;18.966;2023-07-09T09:10:19;35.33;39.65
71254;HTU21D;59019;47.638;18.966;2023-07-09T09:13:13;35.59;38.78
71254;HTU21D;59019;47.638;18.966;2023-07-09T09:16:05;35.63;39.10
71254;HTU21D;59019;47.638;18.966;2023-07-09T09:18:55;35.92;37.37
71254;HTU21D;59019;47.638;18.966;2023-07-09T09:21:43;35.72;37.51
71254;HTU21D;59019;47.638;18.966;2023-07-09T09:24:35;35.77;38.61
71254;HTU21D;59019;47.638;18.966;2023-07-09T09:27:21;36.37;38.00
71254;HTU21D;59019;47.638;18.966;2023-07-09T09:30:15;36.69;36.07
71254;HTU21D;59019;47.638;18.966;2023-07-09T09:33:06;35.73;36.18
71254;HTU21D;59019;47.638;18.966;2023-07-09T09:36:01;35.83;37.03
71254;HTU21D;59019;47.638;18.966;2023-07-09T09:38:49;35.84;36.05
71254;HTU21D;59019;47.638;18.966;2023-07-09T09:41:37;35.81;34.78
71254;HTU21D;59019;47.638;18.966;2023-07-09T09:44:28;35.71;35.60
71254;HTU21D;59019;47.638;18.966;2023-07-09T09:47:14;35.45;36.76
71254;HTU21D;59019;47.638;18.966;2023-07-09T09:50:00;36.17;35.49
71254;HTU21D;59019;47.638;18.966;2023-07-09T09:52:47;35.99;34.60
71254;HTU21D;59019;47.638;18.966;2023-07-09T09:55:34;35.84;35.41
71254;HTU21D;59019;47.638;18.966;2023-07-09T09:58:24;34.96;35.77
71254;HTU21D;59019;47.638;18.966;2023-07-09T10:01:18;35.74;35.79
71254;HTU21D;59019;47.638;18.966;2023-07-09T10:04:05;35.77;36.03
71254;HTU21D;59019;47.638;18.966;2023-07-09T10:06:55;36.12;34.15
71254;HTU21D;59019;47.638;18.966;2023-07-09T10:09:48;36.06;35.91
71254;HTU21D;59019;47.638;18.966;2023-07-09T10:12:59;36.63;35.37
71254;HTU21D;59019;47.638;18.966;2023-07-09T10:15:58;36.77;34.46
71254;HTU21D;59019;47.638;18.966;2023-07-09T10:31:07;37.00;34.96
71254;HTU21D;59019;47.638;18.966;2023-07-09T10:40:45;36.18;33.75
71254;HTU21D;59019;47.638;18.966;2023-07-09T10:43:44;36.04;37.19
71254;HTU21D;59019;47.638;18.966;2023-07-09T10:46:34;36.72;34.60
71254;HTU21D;59019;47.638;18.966;2023-07-09T10:49:21;36.15;34.74
71254;HTU21D;59019;47.638;18.966;2023-07-09T10:52:16;35.24;37.18
71254;HTU21D;59019;47.638;18.966;2023-07-09T10:55:15;35.84;35.37
71254;HTU21D;59019;47.638;18.966;2023-07-09T10:58:05;36.49;35.21
71254;HTU21D;59019;47.638;18.966;2023-07-09T11:00:59;35.77;35.73
71254;HTU21D;59019;47.638;18.966;2023-07-09T11:03:50;35.97;35.14
71254;HTU21D;59019;47.638;18.966;2023-07-09T11:06:45;35.74;36.21
71254;HTU21D;59019;47.638;18.966;2023-07-09T11:09:35;36.18;35.94
71254;HTU21D;59019;47.638;18.966;2023-07-09T11:12:34;36.37;36.25
71254;HTU21D;59019;47.638;18.966;2023-07-09T11:15:31;37.05;34.52
71254;HTU21D;59019;47.638;18.966;2023-07-09T11:18:23;37.80;32.75
71254;HTU21D;59019;47.638;18.966;2023-07-09T11:21:17;37.76;32.76
71254;HTU21D;59019;47.638;18.966;2023-07-09T11:24:05;37.08;32.94
71254;HTU21D;59019;47.638;18.966;2023-07-09T11:26:51;35.95;35.95
71254;HTU21D;59019;47.638;18.966;2023-07-09T11:29:48;35.64;36.34
71254;HTU21D;59019;47.638;18.966;2023-07-09T11:32:45;34.91;38.71
71254;HTU21D;59019;47.638;18.966;2023-07-09T11:35:50;34.05;39.78
71254;HTU21D;59019;47.638;18.966;2023-07-09T11:38:40;34.12;39.85
71254;HTU21D;59019;47.638;18.966;2023-07-09T11:55:56;33.20;40.40
71254;HTU21D;59019;47.638;18.966;2023-07-09T12:01:40;35.08;36.94
71254;HTU21D;59019;47.638;18.966;2023-07-09T12:04:32;35.73;37.01
71254;HTU21D;59019;47.638;18.966;2023-07-09T12:07:22;35.47;34.70
71254;HTU21D;59019;47.638;18.966;2023-07-09T12:10:19;35.83;35.02
71254;HTU21D;59019;47.638;18.966;2023-07-09T12:13:05;36.21;33.86
71254;HTU21D;59019;47.638;18.966;2023-07-09T12:15:51;35.20;35.62
71254;HTU21D;59019;47.638;18.966;2023-07-09T12:18:38;35.70;35.02
71254;HTU21D;59019;47.638;18.966;2023-07-09T12:21:25;35.86;37.11
71254;HTU21D;59019;47.638;18.966;2023-07-09T12:24:27;36.73;35.59
71254;HTU21D;59019;47.638;18.966;2023-07-09T12:27:26;37.42;32.63
71254;HTU21D;59019;47.638;18.966;2023-07-09T12:30:12;38.44;32.88
71254;HTU21D;59019;47.638;18.966;2023-07-09T12:32:58;38.97;30.99
71254;HTU21D;59019;47.638;18.966;2023-07-09T12:35:45;38.60;29.87
71254;HTU21D;59019;47.638;18.966;2023-07-09T12:38:46;38.51;31.84
71254;HTU21D;59019;47.638;18.966;2023-07-09T12:41:55;38.91;32.64
71254;HTU21D;59019;47.638;18.966;2023-07-09T12:44:41;39.02;30.48
71254;HTU21D;59019;47.638;18.966;2023-07-09T12:47:27;38.53;30.87
71254;HTU21D;59019;47.638;18.966;2023-07-09T12:50:34;37.12;32.48
71254;HTU21D;59019;47.638;18.966;2023-07-09T12:53:24;36.27;34.65
71254;HTU21D;59019;47.638;18.966;2023-07-09T12:56:13;36.81;33.15
71254;HTU21D;59019;47.638;18.966;2023-07-09T12:59:02;37.27;33.81
71254;HTU21D;59019;47.638;18.966;2023-07-09T13:04:44;37.10;33.17
71254;HTU21D;59019;47.638;18.966;2023-07-09T13:07:34;37.67;33.11
71254;HTU21D;59019;47.638;18.966;2023-07-09T13:10:24;38.14;33.24
71254;HTU21D;59019;47.638;18.966;2023-07-09T13:13:13;38.05;32.92
71254;HTU21D;59019;47.638;18.966;2023-07-09T13:16:01;38.34;31.40
71254;HTU21D;59019;47.638;18.966;2023-07-09T13:18:48;38.30;32.73
71254;HTU21D;59019;47.638;18.966;2023-07-09T13:21:35;38.66;32.43
71254;HTU21D;59019;47.638;18.966;2023-07-09T13:24:24;38.54;31.16
71254;HTU21D;59019;47.638;18.966;2023-07-09T13:27:15;38.98;30.21
71254;HTU21D;59019;47.638;18.966;2023-07-09T13:30:01;38.37;31.45
71254;HTU21D;59019;47.638;18.966;2023-07-09T13:32:48;37.44;32.31
71254;HTU21D;59019;47.638;18.966;2023-07-09T13:35:34;36.90;34.30
71254;HTU21D;59019;47.638;18.966;2023-07-09T13:38:22;36.11;34.12
71254;HTU21D;59019;47.638;18.966;2023-07-09T13:41:15;35.03;37.56
71254;HTU21D;59019;47.638;18.966;2023-07-09T13:44:01;34.75;39.05
71254;HTU21D;59019;47.638;18.966;2023-07-09T13:46:47;35.34;37.89
71254;HTU21D;59019;47.638;18.966;2023-07-09T13:49:33;36.30;37.27
71254;HTU21D;59019;47.638;18.966;2023-07-09T13:52:22;37.14;35.50
71254;HTU21D;59019;47.638;18.966;2023-07-09T13:55:23;37.37;34.41
71254;HTU21D;59019;47.638;18.966;2023-07-09T13:58:13;37.70;35.85
71254;HTU21D;59019;47.638;18.966;2023-07-09T14:01:14;38.02;34.25
71254;HTU21D;59019;47.638;18.966;2023-07-09T14:04:00;37.90;33.04
71254;HTU21D;59019;47.638;18.966;2023-07-09T14:06:46;38.24;33.46
71254;HTU21D;59019;47.638;18.966;2023-07-09T14:09:33;38.30;33.47
71254;HTU21D;59019;47.638;18.966;2023-07-09T14:12:19;38.30;33.12
71254;HTU21D;59019;47.638;18.966;2023-07-09T14:15:12;38.06;33.00
71254;HTU21D;59019;47.638;18.966;2023-07-09T14:17:58;36.77;33.39
71254;HTU21D;59019;47.638;18.966;2023-07-09T14:20:45;35.62;35.86
71254;HTU21D;59019;47.638;18.966;2023-07-09T14:23:31;35.99;36.13
71254;HTU21D;59019;47.638;18.966;2023-07-09T14:26:18;36.36;34.93
71254;HTU21D;59019;47.638;18.966;2023-07-09T14:29:04;36.64;35.08
71254;HTU21D;59019;47.638;18.966;2023-07-09T14:31:51;37.10;36.77
71254;HTU21D;59019;47.638;18.966;2023-07-09T14:34:37;36.44;35.28
71254;HTU21D;59019;47.638;18.966;2023-07-09T14:37:26;36.86;34.51
71254;HTU21D;59019;47.638;18.966;2023-07-09T14:40:13;37.00;34.70
71254;HTU21D;59019;47.638;18.966;2023-07-09T14:42:59;37.35;34.83
71254;HTU21D;59019;47.638;18.966;2023-07-09T14:45:47;37.32;34.08
71254;HTU21D;59019;47.638;18.966;2023-07-09T14:48:33;37.27;36.24
71254;HTU21D;59019;47.638;18.966;2023-07-09T14:51:19;36.31;36.25
71254;HTU21D;59019;47.638;18.966;2023-07-09T14:54:27;36.10;35.89
71254;HTU21D;59019;47.638;18.966;2023-07-09T14:57:24;36.66;35.60
71254;HTU21D;59019;47.638;18.966;2023-07-09T15:00:19;36.26;37.91
71254;HTU21D;59019;47.638;18.966;2023-07-09T15:03:08;36.43;35.93
71254;HTU21D;59019;47.638;18.966;2023-07-09T15:05:54;35.92;36.27
71254;HTU21D;59019;47.638;18.966;2023-07-09T15:08:40;35.14;37.38
71254;HTU21D;59019;47.638;18.966;2023-07-09T15:11:27;34.75;38.98
71254;HTU21D;59019;47.638;18.966;2023-07-09T15:14:12;35.22;39.11
71254;HTU21D;59019;47.638;18.966;2023-07-09T15:16:59;35.50;41.63
71254;HTU21D;59019;47.638;18.966;2023-07-09T15:19:44;35.96;37.50
71254;HTU21D;59019;47.638;18.966;2023-07-09T15:22:32;36.18;36.79
71254;HTU21D;59019;47.638;18.966;2023-07-09T15:25:23;35.87;37.95
71254;HTU21D;59019;47.638;18.966;2023-07-09T15:28:11;36.08;37.53
71254;HTU21D;59019;47.638;18.966;2023-07-09T15:30:57;36.08;37.31
71254;HTU21D;59019;47.638;18.966;2023-07-09T15:33:43;36.39;38.11
71254;HTU21D;59019;47.638;18.966;2023-07-09T15:36:28;36.30;39.74
71254;HTU21D;59019;47.638;18.966;2023-07-09T15:39:15;35.97;37.00
71254;HTU21D;59019;47.638;18.966;2023-07-09T15:42:01;36.06;36.21
71254;HTU21D;59019;47.638;18.966;2023-07-09T15:44:47;36.30;36.82
71254;HTU21D;59019;47.638;18.966;2023-07-09T15:47:33;36.06;37.88
71254;HTU21D;59019;47.638;18.966;2023-07-09T15:50:22;36.16;37.01
71254;HTU21D;59019;47.638;18.966;2023-07-09T15:53:10;36.12;36.37
71254;HTU21D;59019;47.638;18.966;2023-07-09T15:56:01;35.62;36.34
71254;HTU21D;59019;47.638;18.966;2023-07-09T15:58:48;35.24;39.72
71254;HTU21D;59019;47.638;18.966;2023-07-09T16:01:36;35.57;37.53
71254;HTU21D;59019;47.638;18.966;2023-07-09T16:04:23;35.28;39.37
71254;HTU21D;59019;47.638;18.966;2023-07-09T16:07:08;35.43;38.68
71254;HTU21D;59019;47.638;18.966;2023-07-09T16:09:54;35.37;39.73
71254;HTU21D;59019;47.638;18.966;2023-07-09T16:12:40;35.40;40.50
71254;HTU21D;59019;47.638;18.966;2023-07-09T16:15:28;34.82;41.36
71254;HTU21D;59019;47.638;18.966;2023-07-09T16:18:14;34.86;44.80
71254;HTU21D;59019;47.638;18.966;2023-07-09T16:21:00;34.75;44.25
71254;HTU21D;59019;47.638;18.966;2023-07-09T16:23:46;34.74;39.32
71254;HTU21D;59019;47.638;18.966;2023-07-09T16:26:32;34.29;41.90
71254;HTU21D;59019;47.638;18.966;2023-07-09T16:29:23;34.09;42.47
71254;HTU21D;59019;47.638;18.966;2023-07-09T16:32:09;33.75;42.95
71254;HTU21D;59019;47.638;18.966;2023-07-09T16:34:55;33.86;42.97
71254;HTU21D;59019;47.638;18.966;2023-07-09T16:37:43;33.63;42.59
71254;HTU21D;59019;47.638;18.966;2023-07-09T16:40:30;32.71;44.79
71254;HTU21D;59019;47.638;18.966;2023-07-09T16:43:19;32.03;47.83
71254;HTU21D;59019;47.638;18.966;2023-07-09T16:46:20;31.46;50.49
71254;HTU21D;59019;47.638;18.966;2023-07-09T16:49:35;31.08;50.18
71254;HTU21D;59019;47.638;18.966;2023-07-09T16:52:24;30.49;52.21
71254;HTU21D;59019;47.638;18.966;2023-07-09T16:55:16;30.46;52.31
71254;HTU21D;59019;47.638;18.966;2023-07-09T16:58:03;29.78;53.21
71254;HTU21D;59019;47.638;18.966;2023-07-09T17:00:50;29.05;55.23
71254;HTU21D;59019;47.638;18.966;2023-07-09T17:03:35;28.26;56.82
71254;HTU21D;59019;47.638;18.966;2023-07-09T17:06:21;27.59;58.16
71254;HTU21D;59019;47.638;18.966;2023-07-09T17:09:07;27.19;59.83
71254;HTU21D;59019;47.638;18.966;2023-07-09T17:11:57;26.73;61.92
71254;HTU21D;59019;47.638;18.966;2023-07-09T17:14:44;26.67;61.23
71254;HTU21D;59019;47.638;18.966;2023-07-09T17:17:30;26.48;62.56
71254;HTU21D;59019;47.638;18.966;2023-07-09T17:20:16;26.35;62.63
71254;HTU21D;59019;47.638;18.966;2023-07-09T17:23:03;26.68;62.17
71254;HTU21D;59019;47.638;18.966;2023-07-09T17:25:49;26.57;61.16
71254;HTU21D;59019;47.638;18.966;2023-07-09T17:28:34;26.46;61.05
71254;HTU21D;59019;47.638;18.966;2023-07-09T17:31:21;26.16;61.77
71254;HTU21D;59019;47.638;18.966;2023-07-09T17:34:07;25.91;62.62
71254;HTU21D;59019;47.638;18.966;2023-07-09T17:36:53;25.92;63.60
71254;HTU21D;59019;47.638;18.966;2023-07-09T17:39:39;25.91;63.83
71254;HTU21D;59019;47.638;18.966;2023-07-09T17:42:25;25.68;64.21
71254;HTU21D;59019;47.638;18.966;2023-07-09T17:45:12;25.51;64.67
71254;HTU21D;59019;47.638;18.966;2023-07-09T17:47:59;25.43;64.82
71254;HTU21D;59019;47.638;18.966;2023-07-09T17:50:45;25.22;64.91
71254;HTU21D;59019;47.638;18.966;2023-07-09T17:53:34;24.89;65.10
71254;HTU21D;59019;47.638;18.966;2023-07-09T17:56:22;24.86;65.34
71254;HTU21D;59019;47.638;18.966;2023-07-09T17:59:19;24.91;65.04
71254;HTU21D;59019;47.638;18.966;2023-07-09T18:02:13;24.79;66.75